Moncure, NC

7:12 AM EDT on August 24, 2016 (GMT -0400)
Old Chestnut Crossing | | Change Station

Elev 415 ft 35.66 °N, 79.11 °W | Updated 5 minutes ago

Clear
Clear
62.5 °F
Feels Like 62.5 °F
N
0.0
Wind Variable Wind from South
Gusts 0.0 mph

Today
High -- | Low -- °F
--% Chance of Precip.
Yesterday
High -- | Low -- °F
Precip. -- in
Pressure 30.30 in
Visibility 5.0 miles
Clouds Clear
Dew Point 62 °F
Humidity 97%
Rainfall 0.00 in
Snow Depth Not available.
6:42 AM 7:53 PM
Waning Gibbous, 58% visible
METAR KTTA 241100Z AUTO 00000KT 5SM BR CLR 16/16 A3030 RMK AO2 T01600156
Pressure 30.30 in
Visibility 5.0 miles
Clouds Clear
Dew Point 62 °F
Humidity 97%
Rainfall 0.00 in
Snow Depth Not available.
6:42 AM 7:53 PM
Waning Gibbous, 58% visible
METAR KTTA 241100Z AUTO 00000KT 5SM BR CLR 16/16 A3030 RMK AO2 T01600156

10-Day Weather Forecast

Almanac

Astronomy

Aug. 24, 2016 Rise Set
Actual Time
Civil Twilight
Nautical Twilight
Astronomical Twilight
Moon
Length of Visible Light
Length of Day
Tomorrow will be .
, % of the Moon is Illuminated

Today's Extremes

State Highs State Lows

Community

WunderPhotos

Upload Photos

1,934,565 photos uploaded!

WunderBlog® & News

Nearby

Air Quality

  Air Quality AQ Index Pollutant
Not available.

Snow Depth

Station Depth Elevation

Earthquake Activity

City Distance Mag. Time & Date
Minimum magnitude displayed is 2.5.

Coastal Water Temperatures

Place Temperature

Stations

Nearby Weather Stations

Station Location Temp. Windchill Dew Point Humidity Wind Precip. Elev Updated Type
                   

Watches & Warnings

There are currently no watches in effect.